General Aviation Weather

Text Reports

Enter one or more of the following location identifiers separated by a space:

Zip Code, Four-Character ICAO or Three-Character IATA airport codes.

METAR - Aviation Routine Weather Report
KCCY - Charles City, Iowa
Updated at 2:35 PM GMT on February 06, 2016 (8:35 AM CST):
METAR KCCY 061435Z AUTO 24008KT 4SM BR OVC006 M03/M03 A3018 RMK AO2
TAF - Terminal Area Forecast
KCCY - Charles City, Iowa
Updated at 2:35 PM GMT on February 06, 2016 (8:35 AM CST):
No TAF is currently available for this location.
Decoded:
No decoded TAF is available.
PIREP - Pilot Weather Report
KCCY - Charles City, Iowa
Updated at 2:35 PM GMT on February 06, 2016 (8:35 AM CST):
No PIREP is currently available for this location.
AIRMET - Airmens Meteorological Information
KCCY - Charles City, Iowa
Updated at 2:35 PM GMT on February 06, 2016 (8:35 AM CST):
No AIRMET is currently available for this location.
SIGMET - Significant Meteorological Information
KCCY - Charles City, Iowa
Updated at 2:35 PM GMT on February 06, 2016 (8:35 AM CST):
No SIGMET is currently available for this location.
NOTAM - Notice to Airmen
KCCY - Charles City, Iowa
Updated at 2:35 PM GMT on February 06, 2016 (8:35 AM CST):
No NOTAM is currently available for this location.
Forecast Area
KCCY - Charles City, Iowa
Updated at 2:35 PM GMT on February 06, 2016 (8:35 AM CST):
No NOTAM is currently available for this location.
Aviation Weather Maps